Time,TemperatureF,DewpointF,PressureIn,WindDirection,WindDirectionDegrees,WindSpeedMPH,WindSpeedGustMPH,Humidity,HourlyPrecipIn,Conditions,Clouds,dailyrainin,SoftwareType,DateUTC
2013-03-05 00:08:00,40.4,28.0,29.92,ENE,77,1.0,2.0,62,0.00,,,0.00,weatherlink.com 1.10,2013-03-05 08:08:00,
2013-03-05 00:23:00,39.7,27.0,29.91,East,82,0.0,1.0,60,0.00,,,0.00,weatherlink.com 1.10,2013-03-05 08:23:00,
2013-03-05 00:38:00,39.7,26.0,29.91,East,87,0.0,2.0,59,0.00,,,0.00,weatherlink.com 1.10,2013-03-05 08:38:00,
2013-03-05 00:53:00,39.5,26.0,29.90,East,87,0.0,2.0,59,0.00,,,0.00,weatherlink.com 1.10,2013-03-05 08:53:00,
2013-03-05 01:08:00,39.4,26.0,29.90,East,87,0.0,1.0,58,0.00,,,0.00,weatherlink.com 1.10,2013-03-05 09:08:00,
2013-03-05 01:23:00,39.9,26.0,29.90,East,87,0.0,0.0,57,0.00,,,0.00,weatherlink.com 1.10,2013-03-05 09:23:00,
2013-03-05 01:38:00,43.7,33.0,29.89,ENE,71,5.0,6.0,65,0.00,,,0.00,weatherlink.com 1.10,2013-03-05 09:38:00,
2013-03-05 01:53:00,44.2,32.0,29.89,ENE,60,6.0,8.0,62,0.00,,,0.00,weatherlink.com 1.10,2013-03-05 09:53:00,
2013-03-05 02:08:00,44.2,32.0,29.89,ENE,78,5.0,7.0,63,0.00,,,0.00,weatherlink.com 1.10,2013-03-05 10:08:00,
2013-03-05 02:23:00,44.3,32.0,29.89,NNE,32,2.0,7.0,63,0.00,,,0.00,weatherlink.com 1.10,2013-03-05 10:23:00,
2013-03-05 02:38:00,44.0,32.0,29.88,NE,41,1.0,6.0,63,0.00,,,0.00,weatherlink.com 1.10,2013-03-05 10:38:00,
2013-03-05 02:53:00,43.8,31.0,29.87,NE,38,8.0,8.0,62,0.00,,,0.00,weatherlink.com 1.10,2013-03-05 10:53:00,
2013-03-05 03:08:00,43.9,31.0,29.86,NE,54,5.0,8.0,62,0.00,,,0.00,weatherlink.com 1.10,2013-03-05 11:08:00,
2013-03-05 03:23:00,43.8,31.0,29.86,ENE,73,4.0,7.0,62,0.00,,,0.00,weatherlink.com 1.10,2013-03-05 11:23:00,
2013-03-05 03:38:00,43.7,31.0,29.84,ENE,71,5.0,8.0,62,0.00,,,0.00,weatherlink.com 1.10,2013-03-05 11:38:00,
2013-03-05 03:53:00,43.8,31.0,29.84,ENE,65,3.0,9.0,61,0.00,,,0.00,weatherlink.com 1.10,2013-03-05 11:53:00,
2013-03-05 04:08:00,43.9,31.0,29.84,NE,42,5.0,9.0,61,0.00,,,0.00,weatherlink.com 1.10,2013-03-05 12:08:00,
2013-03-05 04:23:00,43.8,31.0,29.84,ENE,64,3.0,8.0,61,0.00,,,0.00,weatherlink.com 1.10,2013-03-05 12:23:00,
2013-03-05 04:38:00,43.7,31.0,29.83,NNE,18,3.0,10.0,61,0.00,,,0.00,weatherlink.com 1.10,2013-03-05 12:38:00,
2013-03-05 04:53:00,43.9,31.0,29.83,NE,53,6.0,10.0,60,0.00,,,0.00,weatherlink.com 1.10,2013-03-05 12:53:00,
2013-03-05 05:08:00,44.3,31.0,29.82,NE,48,5.0,10.0,59,0.00,,,0.00,weatherlink.com 1.10,2013-03-05 13:08:00,
2013-03-05 05:23:00,44.4,31.0,29.82,East,92,6.0,9.0,59,0.00,,,0.00,weatherlink.com 1.10,2013-03-05 13:23:00,
2013-03-05 05:38:00,44.6,31.0,29.81,NE,44,4.0,7.0,59,0.00,,,0.00,weatherlink.com 1.10,2013-03-05 13:38:00,
2013-03-05 05:53:00,44.6,31.0,29.81,NE,34,2.0,7.0,60,0.00,,,0.00,weatherlink.com 1.10,2013-03-05 13:53:00,
2013-03-05 06:08:00,43.7,31.0,29.81,SE,133,2.0,5.0,62,0.00,,,0.00,weatherlink.com 1.10,2013-03-05 14:08:00,
2013-03-05 06:23:00,44.0,32.0,29.81,SE,136,1.0,5.0,62,0.00,,,0.00,weatherlink.com 1.10,2013-03-05 14:23:00,
2013-03-05 06:39:00,44.1,32.0,29.80,NE,43,4.0,7.0,62,0.00,,,0.00,weatherlink.com 1.10,2013-03-05 14:39:00,
2013-03-05 06:54:00,44.4,32.0,29.80,NE,48,3.0,6.0,61,0.00,,,0.00,weatherlink.com 1.10,2013-03-05 14:54:00,
2013-03-05 07:09:00,45.0,31.0,29.80,NE,56,5.0,7.0,59,0.00,,,0.00,weatherlink.com 1.10,2013-03-05 15:09:00,
2013-03-05 07:24:00,45.1,30.0,29.81,NNE,33,1.0,9.0,56,0.00,,,0.00,weatherlink.com 1.10,2013-03-05 15:24:00,
2013-03-05 07:39:00,44.0,32.0,29.81,South,185,3.0,6.0,63,0.00,,,0.00,weatherlink.com 1.10,2013-03-05 15:39:00,
2013-03-05 07:54:00,43.4,32.0,29.82,SSW,194,1.0,3.0,64,0.00,,,0.00,weatherlink.com 1.10,2013-03-05 15:54:00,
2013-03-05 08:09:00,43.9,33.0,29.81,SSW,196,3.0,3.0,65,0.00,,,0.00,weatherlink.com 1.10,2013-03-05 16:09:00,
2013-03-05 08:24:00,44.5,32.0,29.82,ENE,58,5.0,6.0,63,0.00,,,0.00,weatherlink.com 1.10,2013-03-05 16:24:00,
2013-03-05 08:39:00,45.5,32.0,29.82,NNE,25,1.0,6.0,60,0.00,,,0.00,weatherlink.com 1.10,2013-03-05 16:39:00,
2013-03-05 08:54:00,45.6,32.0,29.82,NE,47,3.0,8.0,60,0.00,,,0.00,weatherlink.com 1.10,2013-03-05 16:54:00,
2013-03-05 09:09:00,47.0,34.0,29.83,East,82,11.0,15.0,61,0.00,,,0.00,weatherlink.com 1.10,2013-03-05 17:09:00,
2013-03-05 09:24:00,46.5,34.0,29.82,ENE,65,5.0,13.0,61,0.00,,,0.00,weatherlink.com 1.10,2013-03-05 17:24:00,
2013-03-05 09:39:00,46.8,34.0,29.82,NE,38,6.0,15.0,61,0.00,,,0.00,weatherlink.com 1.10,2013-03-05 17:39:00,
2013-03-05 09:54:00,45.9,32.0,29.82,NE,36,7.0,14.0,58,0.00,,,0.00,weatherlink.com 1.10,2013-03-05 17:54:00,
2013-03-05 10:09:00,45.6,32.0,29.82,NE,46,7.0,11.0,59,0.00,,,0.00,weatherlink.com 1.10,2013-03-05 18:09:00,
2013-03-05 10:24:00,45.5,33.0,29.82,NE,46,4.0,11.0,61,0.00,,,0.00,weatherlink.com 1.10,2013-03-05 18:24:00,
2013-03-05 10:39:00,45.6,34.0,29.81,NNE,15,10.0,12.0,63,0.00,,,0.00,weatherlink.com 1.10,2013-03-05 18:39:00,
2013-03-05 10:54:00,46.2,34.0,29.81,ENE,72,5.0,12.0,63,0.00,,,0.00,weatherlink.com 1.10,2013-03-05 18:54:00,
2013-03-05 11:09:00,46.1,34.0,29.81,ESE,113,3.0,8.0,63,0.00,,,0.00,weatherlink.com 1.10,2013-03-05 19:09:00,
2013-03-05 11:24:00,46.0,34.0,29.80,ENE,57,3.0,7.0,63,0.00,,,0.00,weatherlink.com 1.10,2013-03-05 19:24:00,
2013-03-05 11:39:00,46.1,34.0,29.80,NE,39,2.0,8.0,63,0.00,,,0.00,weatherlink.com 1.10,2013-03-05 19:39:00,
2013-03-05 11:54:00,46.3,35.0,29.80,NE,35,0.0,5.0,64,0.00,,,0.00,weatherlink.com 1.10,2013-03-05 19:54:00,
2013-03-05 12:09:00,46.5,34.0,29.80,NNW,335,0.0,6.0,63,0.00,,,0.00,weatherlink.com 1.10,2013-03-05 20:09:00,
2013-03-05 12:24:00,46.5,34.0,29.80,NNW,337,3.0,3.0,63,0.00,,,0.00,weatherlink.com 1.10,2013-03-05 20:24:00,
2013-03-05 12:39:00,46.3,34.0,29.79,NNE,33,4.0,7.0,62,0.00,,,0.00,weatherlink.com 1.10,2013-03-05 20:39:00,
2013-03-05 12:54:00,46.5,34.0,29.79,NNE,15,4.0,6.0,61,0.00,,,0.00,weatherlink.com 1.10,2013-03-05 20:54:00,
2013-03-05 13:09:00,46.7,34.0,29.78,NE,44,5.0,12.0,62,0.00,,,0.00,weatherlink.com 1.10,2013-03-05 21:09:00,
2013-03-05 13:24:00,46.7,34.0,29.77,NNW,346,10.0,14.0,61,0.00,,,0.00,weatherlink.com 1.10,2013-03-05 21:24:00,
2013-03-05 13:39:00,46.7,34.0,29.77,NNE,29,3.0,9.0,61,0.00,,,0.00,weatherlink.com 1.10,2013-03-05 21:39:00,
2013-03-05 13:54:00,46.9,34.0,29.77,NNE,23,5.0,13.0,62,0.00,,,0.00,weatherlink.com 1.10,2013-03-05 21:54:00,
2013-03-05 14:09:00,47.0,34.0,29.76,ENE,60,7.0,13.0,62,0.00,,,0.00,weatherlink.com 1.10,2013-03-05 22:09:00,
2013-03-05 14:24:00,47.1,35.0,29.76,North,355,5.0,12.0,62,0.00,,,0.00,weatherlink.com 1.10,2013-03-05 22:24:00,
2013-03-05 14:39:00,47.3,35.0,29.75,NE,45,4.0,9.0,62,0.00,,,0.00,weatherlink.com 1.10,2013-03-05 22:39:00,
2013-03-05 14:54:00,47.4,35.0,29.77,NNE,14,6.0,11.0,62,0.00,,,0.00,weatherlink.com 1.10,2013-03-05 22:54:00,
2013-03-05 15:09:00,47.0,34.0,29.77,NE,56,8.0,13.0,61,0.00,,,0.00,weatherlink.com 1.10,2013-03-05 23:09:00,
2013-03-05 15:24:00,46.7,34.0,29.76,North,8,8.0,13.0,62,0.00,,,0.00,weatherlink.com 1.10,2013-03-05 23:24:00,
2013-03-05 15:39:00,46.7,35.0,29.75,NE,42,8.0,11.0,63,0.00,,,0.00,weatherlink.com 1.10,2013-03-05 23:39:00,
2013-03-05 15:54:00,46.7,35.0,29.75,North,11,7.0,13.0,63,0.00,,,0.00,weatherlink.com 1.10,2013-03-05 23:54:00,
2013-03-05 16:09:00,46.8,35.0,29.75,East,99,4.0,10.0,63,0.00,,,0.00,weatherlink.com 1.10,2013-03-06 00:09:00,
2013-03-05 16:24:00,47.0,35.0,29.75,ENE,69,5.0,10.0,63,0.00,,,0.00,weatherlink.com 1.10,2013-03-06 00:24:00,
2013-03-05 16:39:00,47.1,35.0,29.75,NE,36,4.0,8.0,64,0.00,,,0.00,weatherlink.com 1.10,2013-03-06 00:39:00,
2013-03-05 16:54:00,47.1,36.0,29.75,NE,36,0.0,3.0,65,0.00,,,0.00,weatherlink.com 1.10,2013-03-06 00:54:00,
2013-03-05 17:09:00,46.4,35.0,29.76,SE,133,0.0,3.0,65,0.00,,,0.00,weatherlink.com 1.10,2013-03-06 01:09:00,
2013-03-05 17:24:00,46.0,35.0,29.77,SE,133,0.0,2.0,65,0.00,,,0.00,weatherlink.com 1.10,2013-03-06 01:24:00,
2013-03-05 17:39:00,46.1,35.0,29.77,South,170,2.0,5.0,65,0.00,,,0.00,weatherlink.com 1.10,2013-03-06 01:39:00,
2013-03-05 17:54:00,45.0,33.0,29.77,South,170,0.0,3.0,62,0.00,,,0.00,weatherlink.com 1.10,2013-03-06 01:54:00,
2013-03-05 18:09:00,44.2,30.0,29.77,South,170,1.0,1.0,57,0.00,,,0.00,weatherlink.com 1.10,2013-03-06 02:09:00,
2013-03-05 18:24:00,43.3,27.0,29.77,South,170,0.0,2.0,54,0.00,,,0.00,weatherlink.com 1.10,2013-03-06 02:24:00,
2013-03-05 18:39:00,42.5,25.0,29.78,South,170,0.0,2.0,51,0.00,,,0.00,weatherlink.com 1.10,2013-03-06 02:39:00,
2013-03-05 18:54:00,42.2,24.0,29.78,South,170,0.0,1.0,49,0.00,,,0.00,weatherlink.com 1.10,2013-03-06 02:54:00,
2013-03-05 19:09:00,-999.0,-99.9,29.78,South,170,0.0,2.0,47,0.00,,,0.00,weatherlink.com 1.10,2013-03-06 03:09:00,
2013-03-05 19:25:00,-999.0,-99.9,29.78,South,170,2.0,5.0,47,0.00,,,0.00,weatherlink.com 1.10,2013-03-06 03:25:00,
2013-03-05 19:40:00,-999.0,-99.9,29.78,ESE,119,3.0,3.0,47,0.00,,,0.00,weatherlink.com 1.10,2013-03-06 03:40:00,
2013-03-05 19:55:00,-999.0,-99.9,29.78,ESE,107,0.0,4.0,47,0.00,,,0.00,weatherlink.com 1.10,2013-03-06 03:55:00,
2013-03-05 20:10:00,-999.0,-99.9,29.78,ESE,107,2.0,4.0,47,0.00,,,0.00,weatherlink.com 1.10,2013-03-06 04:10:00,
2013-03-05 20:25:00,-999.0,-99.9,29.78,ENE,58,2.0,6.0,48,0.00,,,0.00,weatherlink.com 1.10,2013-03-06 04:25:00,
2013-03-05 20:40:00,-999.0,-99.9,29.77,ENE,58,0.0,4.0,49,0.00,,,0.00,weatherlink.com 1.10,2013-03-06 04:40:00,
2013-03-05 20:55:00,-999.0,-99.9,29.77,ENE,58,0.0,2.0,49,0.00,,,0.00,weatherlink.com 1.10,2013-03-06 04:55:00,
2013-03-05 21:10:00,-999.0,-99.9,29.77,ENE,57,0.0,1.0,48,0.00,,,0.00,weatherlink.com 1.10,2013-03-06 05:10:00,
2013-03-05 21:25:00,-999.0,-99.9,29.77,ENE,58,1.0,2.0,48,0.00,,,0.00,weatherlink.com 1.10,2013-03-06 05:25:00,
2013-03-05 21:40:00,-999.0,-99.9,29.77,ENE,58,1.0,2.0,-999,0.00,,,0.00,weatherlink.com 1.10,2013-03-06 05:40:00,
2013-03-05 21:55:00,-999.0,-99.9,29.77,SE,146,1.0,3.0,-999,0.00,,,0.00,weatherlink.com 1.10,2013-03-06 05:55:00,
2013-03-05 22:10:00,-999.0,-99.9,29.76,SSE,148,2.0,4.0,-999,0.00,,,0.00,weatherlink.com 1.10,2013-03-06 06:10:00,
2013-03-05 22:25:00,-999.0,-99.9,29.76,SE,133,1.0,4.0,-999,0.00,,,0.00,weatherlink.com 1.10,2013-03-06 06:25:00,
2013-03-05 22:40:00,-999.0,-99.9,29.76,ESE,121,3.0,4.0,-999,0.00,,,0.00,weatherlink.com 1.10,2013-03-06 06:40:00,
2013-03-05 22:56:00,-999.0,-99.9,29.75,ENE,74,4.0,6.0,-999,0.00,,,0.00,weatherlink.com 1.10,2013-03-06 06:56:00,
2013-03-05 23:11:00,-999.0,-99.9,29.74,NE,44,1.0,5.0,-999,0.00,,,0.00,weatherlink.com 1.10,2013-03-06 07:11:00,
2013-03-05 23:26:00,-999.0,-99.9,29.74,NNE,31,1.0,7.0,-999,0.00,,,0.00,weatherlink.com 1.10,2013-03-06 07:26:00,
2013-03-05 23:41:00,-999.0,-99.9,29.73,NNE,25,4.0,10.0,-999,0.00,,,0.00,weatherlink.com 1.10,2013-03-06 07:41:00,
2013-03-05 23:56:00,-999.0,-99.9,29.73,NNE,27,2.0,8.0,-999,0.00,,,0.00,weatherlink.com 1.10,2013-03-06 07:56:00,